createdAt,value
2022-10-19T00:02:18.079Z,12.86
2022-10-19T00:05:20.974Z,13.02
2022-10-19T00:08:23.585Z,13.18
2022-10-19T00:11:28.526Z,13.25
2022-10-19T00:14:31.008Z,13.32
2022-10-19T00:17:35.058Z,13.38
2022-10-19T00:20:39.073Z,13.42
2022-10-19T00:23:42.452Z,13.48
2022-10-19T00:26:44.963Z,13.53
2022-10-19T00:29:47.741Z,13.66
2022-10-19T00:32:50.216Z,13.70
2022-10-19T00:35:53.006Z,13.80
2022-10-19T00:38:56.445Z,13.84
2022-10-19T00:41:59.222Z,13.87
2022-10-19T00:45:09.603Z,13.95
2022-10-19T00:48:16.067Z,13.95
2022-10-19T00:51:18.827Z,13.93
2022-10-19T00:54:21.816Z,13.96
2022-10-19T00:57:27.184Z,13.88
2022-10-19T01:00:30.179Z,13.83
2022-10-19T01:03:33.475Z,13.86
2022-10-19T01:06:36.255Z,14.07
2022-10-19T01:09:38.830Z,14.11
2022-10-19T01:13:00.429Z,14.17
2022-10-19T01:16:13.075Z,14.17
2022-10-19T01:19:37.314Z,14.17
2022-10-19T01:23:17.856Z,14.12
2022-10-19T01:26:20.533Z,14.03
2022-10-19T01:29:32.929Z,14.04
2022-10-19T01:33:01.371Z,14.06
2022-10-19T01:36:23.526Z,14.01
2022-10-19T01:39:49.139Z,13.87
2022-10-19T01:43:00.772Z,13.89
2022-10-19T01:46:07.788Z,13.75
2022-10-19T01:49:43.084Z,13.93
2022-10-19T01:52:46.769Z,14.07
2022-10-19T01:55:51.555Z,14.11
2022-10-19T01:58:57.067Z,14.17
2022-10-19T02:01:59.698Z,14.26
2022-10-19T02:05:04.049Z,14.28
2022-10-19T02:08:20.906Z,14.33
2022-10-19T02:11:24.262Z,14.33
2022-10-19T02:14:34.249Z,14.37
2022-10-19T02:17:42.215Z,14.35
2022-10-19T02:20:45.548Z,14.25
2022-10-19T02:23:50.511Z,14.10
2022-10-19T02:26:56.721Z,14.03
2022-10-19T02:29:59.556Z,13.84
2022-10-19T02:33:02.010Z,13.66
2022-10-19T02:36:05.114Z,13.57
2022-10-19T02:39:08.014Z,13.27
2022-10-19T02:42:22.245Z,13.10
2022-10-19T02:45:30.009Z,12.91
2022-10-19T02:48:34.169Z,12.75
2022-10-19T02:51:58.831Z,12.70
2022-10-19T02:55:01.667Z,12.84
2022-10-19T02:58:04.206Z,12.83
2022-10-19T03:01:07.074Z,12.77
2022-10-19T03:04:09.704Z,12.80
2022-10-19T03:07:14.956Z,12.88
2022-10-19T03:10:18.066Z,12.92
2022-10-19T03:13:20.832Z,12.95
2022-10-19T03:16:23.303Z,12.96
2022-10-19T03:19:26.623Z,12.88
2022-10-19T03:22:29.072Z,12.95
2022-10-19T03:25:31.956Z,13.07
2022-10-19T03:28:34.791Z,12.98
2022-10-19T03:31:37.572Z,12.86
2022-10-19T03:34:40.032Z,12.83
2022-10-19T03:37:42.782Z,12.99
2022-10-19T03:40:46.478Z,12.99
2022-10-19T03:43:49.596Z,12.85
2022-10-19T03:46:52.056Z,12.86
2022-10-19T03:49:54.869Z,12.70
2022-10-19T03:52:57.411Z,12.45
2022-10-19T03:56:16.256Z,12.28
2022-10-19T03:59:18.805Z,12.24
2022-10-19T04:02:21.503Z,12.14
2022-10-19T04:05:24.284Z,12.05
2022-10-19T04:08:26.744Z,12.05
2022-10-19T04:11:30.938Z,12.00
2022-10-19T04:14:39.392Z,11.92
2022-10-19T04:17:55.604Z,11.90
2022-10-19T04:21:02.064Z,11.97
2022-10-19T04:24:06.862Z,11.89
2022-10-19T04:27:09.367Z,11.92
2022-10-19T04:30:12.074Z,11.93
2022-10-19T04:33:14.958Z,11.90
2022-10-19T04:36:17.670Z,11.81
2022-10-19T04:39:20.099Z,11.74
2022-10-19T04:42:22.833Z,11.67
2022-10-19T04:45:25.262Z,11.57
2022-10-19T04:48:27.973Z,11.48
2022-10-19T04:51:30.482Z,11.40
2022-10-19T04:54:33.190Z,11.57
2022-10-19T04:57:35.932Z,11.73
2022-10-19T05:00:39.946Z,11.85
2022-10-19T05:03:42.786Z,11.97
2022-10-19T05:06:45.531Z,12.03
2022-10-19T05:09:47.997Z,12.09
2022-10-19T05:12:50.933Z,12.10
2022-10-19T05:16:00.795Z,12.11
2022-10-19T05:19:03.738Z,12.10
2022-10-19T05:22:06.368Z,12.19
2022-10-19T05:25:09.336Z,12.23
2022-10-19T05:28:11.938Z,12.11
2022-10-19T05:31:17.574Z,12.07
2022-10-19T05:34:20.182Z,12.00
2022-10-19T05:37:23.345Z,11.96
2022-10-19T05:40:28.562Z,11.95
2022-10-19T05:43:31.374Z,11.91
2022-10-19T05:46:34.170Z,11.82
2022-10-19T05:49:37.040Z,11.76
2022-10-19T05:52:39.564Z,11.73
2022-10-19T05:55:44.053Z,11.70
2022-10-19T05:58:46.870Z,11.73
2022-10-19T06:01:49.929Z,11.76
2022-10-19T06:04:52.725Z,11.74
2022-10-19T06:07:55.394Z,11.79
2022-10-19T06:11:09.730Z,11.88
2022-10-19T06:14:15.178Z,11.92
2022-10-19T06:17:18.038Z,12.07
2022-10-19T06:20:21.116Z,12.22
2022-10-19T06:23:24.050Z,12.59
2022-10-19T06:26:27.165Z,13.55
2022-10-19T06:29:30.114Z,14.88
2022-10-19T06:32:33.960Z,15.57
2022-10-19T06:35:36.675Z,15.79
2022-10-19T06:38:39.505Z,15.87
2022-10-19T06:41:42.200Z,15.91
2022-10-19T06:44:47.660Z,15.43
2022-10-19T06:47:50.422Z,14.92
2022-10-19T06:51:00.526Z,14.62
2022-10-19T06:54:03.432Z,15.96
2022-10-19T06:57:08.097Z,16.63
2022-10-19T07:00:13.041Z,16.91
2022-10-19T07:03:15.582Z,17.12
2022-10-19T07:06:18.634Z,17.76
2022-10-19T07:09:22.504Z,17.78
2022-10-19T07:12:25.310Z,17.49
2022-10-19T07:15:27.901Z,17.83
2022-10-19T07:18:30.737Z,18.13
2022-10-19T07:21:33.454Z,18.60
2022-10-19T07:24:36.470Z,18.29
2022-10-19T07:27:40.522Z,19.00
2022-10-19T07:30:43.691Z,18.43
2022-10-19T07:33:46.914Z,18.75
2022-10-19T07:36:49.827Z,18.53
2022-10-19T07:39:52.302Z,18.85
2022-10-19T07:42:55.065Z,20.22
2022-10-19T07:46:05.408Z,20.56
2022-10-19T07:49:10.380Z,20.56
2022-10-19T07:52:13.484Z,20.61
2022-10-19T07:55:18.640Z,20.88
2022-10-19T07:58:21.325Z,21.07
2022-10-19T08:01:37.080Z,22.00
2022-10-19T08:04:59.587Z,21.79
2022-10-19T08:08:04.232Z,21.42
2022-10-19T08:11:38.122Z,21.02
2022-10-19T08:14:41.521Z,21.97
2022-10-19T08:17:46.145Z,21.15
2022-10-19T08:20:50.589Z,21.69
2022-10-19T08:23:54.463Z,21.50
2022-10-19T08:26:57.442Z,20.98
2022-10-19T08:30:00.248Z,20.53
2022-10-19T08:33:04.637Z,19.35
2022-10-19T08:36:08.518Z,19.12
2022-10-19T08:39:14.602Z,18.93
2022-10-19T08:42:25.072Z,19.04
2022-10-19T08:45:38.727Z,19.15
2022-10-19T08:48:43.847Z,18.83
2022-10-19T08:51:50.470Z,18.31
2022-10-19T08:54:55.747Z,18.43
2022-10-19T08:58:23.154Z,19.10
2022-10-19T09:01:58.986Z,19.79
2022-10-19T09:05:07.586Z,20.17
2022-10-19T09:08:15.386Z,20.49
2022-10-19T09:11:27.775Z,19.91
2022-10-19T09:14:36.486Z,20.74
2022-10-19T09:17:39.137Z,20.77
2022-10-19T09:20:43.512Z,20.61
2022-10-19T09:23:58.356Z,20.29
2022-10-19T09:27:02.136Z,20.23
2022-10-19T09:30:10.064Z,20.00
2022-10-19T09:33:22.570Z,20.43
2022-10-19T09:36:46.326Z,21.00
2022-10-19T09:39:54.989Z,21.13
2022-10-19T09:42:59.241Z,21.24
2022-10-19T09:46:20.094Z,21.49
2022-10-19T09:49:46.317Z,22.05
2022-10-19T09:52:54.532Z,21.96
2022-10-19T09:56:01.416Z,21.30
2022-10-19T09:59:04.237Z,21.18
2022-10-19T10:02:06.650Z,21.22
2022-10-19T10:05:15.283Z,20.47
2022-10-19T10:08:21.487Z,20.65
2022-10-19T10:11:33.389Z,19.70
2022-10-19T10:14:36.932Z,18.85
2022-10-19T10:17:40.117Z,18.71
2022-10-19T10:21:07.110Z,18.99
2022-10-19T10:24:21.624Z,19.83
2022-10-19T10:27:34.163Z,21.03
2022-10-19T10:30:37.803Z,21.89
2022-10-19T10:33:45.037Z,19.88
2022-10-19T10:36:54.128Z,19.44
2022-10-19T10:40:00.529Z,18.43
2022-10-19T10:43:12.736Z,18.32
2022-10-19T10:46:17.338Z,18.19
2022-10-19T10:49:23.696Z,18.02
2022-10-19T10:52:28.570Z,17.73
2022-10-19T10:55:32.221Z,18.20
2022-10-19T10:58:43.807Z,18.67
2022-10-19T11:01:58.528Z,18.62
2022-10-19T11:05:11.246Z,18.53
2022-10-19T11:08:23.418Z,18.36
2022-10-19T11:11:32.378Z,18.22
2022-10-19T11:14:49.133Z,18.17
2022-10-19T11:18:13.200Z,18.32
2022-10-19T11:21:57.671Z,18.34
2022-10-19T11:25:21.618Z,18.13
2022-10-19T11:28:40.912Z,17.94
2022-10-19T11:31:53.839Z,17.90
2022-10-19T11:35:14.758Z,17.73
2022-10-19T11:38:55.793Z,17.69
2022-10-19T11:42:12.175Z,17.35
2022-10-19T11:45:18.551Z,17.27
2022-10-19T11:48:43.060Z,17.37
2022-10-19T11:52:04.098Z,17.42
2022-10-19T11:55:35.547Z,17.21
2022-10-19T11:58:41.023Z,17.31
2022-10-19T12:01:43.769Z,17.24
2022-10-19T12:05:04.583Z,17.26
2022-10-19T12:08:07.658Z,17.27
2022-10-19T12:11:24.209Z,17.16
2022-10-19T12:14:32.387Z,17.19
2022-10-19T12:17:38.243Z,17.32
2022-10-19T12:20:54.666Z,17.42
2022-10-19T12:23:59.099Z,17.45
2022-10-19T12:27:02.034Z,17.42
2022-10-19T12:30:13.974Z,17.22
2022-10-19T12:33:33.879Z,17.17
2022-10-19T12:36:55.434Z,17.17
2022-10-19T12:40:01.061Z,17.23
2022-10-19T12:43:09.591Z,17.18
2022-10-19T12:46:19.631Z,17.19
2022-10-19T12:49:35.407Z,17.26
2022-10-19T12:52:45.407Z,17.26
2022-10-19T12:56:01.766Z,17.03
2022-10-19T12:59:04.327Z,17.19
2022-10-19T13:02:25.999Z,17.31
2022-10-19T13:05:29.892Z,17.24
2022-10-19T13:08:42.812Z,17.20
2022-10-19T13:12:25.873Z,17.10
2022-10-19T13:15:37.753Z,17.06
2022-10-19T13:19:14.237Z,17.05
2022-10-19T13:22:26.223Z,17.05
2022-10-19T13:25:30.103Z,17.22
2022-10-19T13:28:32.757Z,17.13
2022-10-19T13:31:37.504Z,17.17
2022-10-19T13:34:41.135Z,17.13
2022-10-19T13:37:43.896Z,16.93
2022-10-19T13:40:48.341Z,16.80
2022-10-19T13:44:12.122Z,16.72
2022-10-19T13:50:55.090Z,16.82
2022-10-19T13:54:22.076Z,16.87
2022-10-19T13:57:43.311Z,16.85
2022-10-19T14:00:52.171Z,16.94
2022-10-19T14:04:04.520Z,16.82
2022-10-19T14:07:21.518Z,16.72
2022-10-19T14:10:32.638Z,16.69
2022-10-19T14:13:35.632Z,16.68
2022-10-19T14:17:04.128Z,16.45
2022-10-19T14:20:25.847Z,16.31
2022-10-19T14:23:31.361Z,16.32
2022-10-19T14:26:34.665Z,16.19
2022-10-19T14:29:47.011Z,16.09
2022-10-19T14:32:49.557Z,15.96
2022-10-19T14:35:52.858Z,15.89
2022-10-19T14:38:56.167Z,15.85
2022-10-19T14:42:10.357Z,15.73
2022-10-19T14:45:16.272Z,15.58
2022-10-19T14:48:19.062Z,15.48
2022-10-19T14:51:36.725Z,15.42
2022-10-19T14:54:42.643Z,15.39
2022-10-19T14:57:47.918Z,15.27
2022-10-19T15:00:52.562Z,15.22
2022-10-19T15:03:55.348Z,15.17
2022-10-19T15:06:59.327Z,15.03
2022-10-19T15:10:05.771Z,15.04
2022-10-19T15:13:19.868Z,14.87
2022-10-19T15:16:29.696Z,14.84
2022-10-19T15:19:39.667Z,14.71
2022-10-19T15:22:42.143Z,14.56
2022-10-19T15:25:44.932Z,14.40
2022-10-19T15:28:48.514Z,14.23
2022-10-19T15:31:56.378Z,14.18
2022-10-19T15:34:59.133Z,14.07
2022-10-19T15:38:03.977Z,13.88
2022-10-19T15:41:06.600Z,13.79
2022-10-19T15:44:29.895Z,13.60
2022-10-19T15:47:32.487Z,13.37
2022-10-19T15:50:47.879Z,13.36
2022-10-19T15:53:57.524Z,13.39
2022-10-19T15:57:00.370Z,13.36
2022-10-19T16:00:22.247Z,13.41
2022-10-19T16:03:25.064Z,13.42
2022-10-19T16:06:30.305Z,13.35
2022-10-19T16:09:33.229Z,13.15
2022-10-19T16:12:35.751Z,13.03
2022-10-19T16:15:38.603Z,12.83
2022-10-19T16:18:41.304Z,12.73
2022-10-19T16:21:49.314Z,12.83
2022-10-19T16:24:52.875Z,12.69
2022-10-19T16:27:55.688Z,12.84
2022-10-19T16:30:58.227Z,12.69
2022-10-19T16:34:01.115Z,12.54
2022-10-19T16:37:06.672Z,12.56
2022-10-19T16:40:10.499Z,12.50
2022-10-19T16:43:12.952Z,12.36
2022-10-19T16:46:15.826Z,12.47
2022-10-19T16:49:18.327Z,12.53
2022-10-19T16:52:21.502Z,12.64
2022-10-19T16:55:24.165Z,12.31
2022-10-19T16:58:27.333Z,12.36
2022-10-19T17:01:31.302Z,12.21
2022-10-19T17:04:34.468Z,12.32
2022-10-19T17:07:36.913Z,12.13
2022-10-19T17:10:43.353Z,12.04
2022-10-19T17:13:48.093Z,12.02
2022-10-19T17:16:51.069Z,11.91
2022-10-19T17:19:53.722Z,11.90
2022-10-19T17:22:56.768Z,11.82
2022-10-19T17:25:59.238Z,11.92
2022-10-19T17:29:02.957Z,11.82
2022-10-19T17:32:05.763Z,11.72
2022-10-19T17:35:08.824Z,11.71
2022-10-19T17:38:11.654Z,11.65
2022-10-19T17:41:17.039Z,11.64
2022-10-19T17:44:21.173Z,11.48
2022-10-19T17:47:24.531Z,11.37
2022-10-19T17:50:29.127Z,11.34
2022-10-19T17:53:33.743Z,11.47
2022-10-19T17:56:37.419Z,11.24
2022-10-19T17:59:52.630Z,11.10
2022-10-19T18:02:57.626Z,10.98
2022-10-19T18:06:12.056Z,10.89
2022-10-19T18:09:14.865Z,10.92
2022-10-19T18:12:18.268Z,10.90
2022-10-19T18:15:20.967Z,10.91
2022-10-19T18:18:24.601Z,10.84
2022-10-19T18:21:31.098Z,10.85
2022-10-19T18:24:34.785Z,10.79
2022-10-19T18:27:37.739Z,10.72
2022-10-19T18:30:45.189Z,10.59
2022-10-19T18:33:54.643Z,10.53
2022-10-19T18:36:57.754Z,10.60
2022-10-19T18:40:00.450Z,10.52
2022-10-19T18:43:04.709Z,10.33
2022-10-19T18:46:08.724Z,10.17
2022-10-19T18:49:12.763Z,10.00
2022-10-19T18:55:32.620Z,9.92
2022-10-19T18:58:35.936Z,9.89
2022-10-19T19:01:39.685Z,9.75
2022-10-19T19:04:42.687Z,9.58
2022-10-19T19:07:45.725Z,9.54
2022-10-19T19:10:48.589Z,9.51
2022-10-19T19:14:03.030Z,9.49
2022-10-19T19:17:05.729Z,9.36
2022-10-19T19:20:09.112Z,9.41
2022-10-19T19:23:12.398Z,9.41
2022-10-19T19:26:15.897Z,9.25
2022-10-19T19:29:19.778Z,9.20
2022-10-19T19:32:23.481Z,9.15
2022-10-19T19:35:26.453Z,9.01
2022-10-19T19:38:30.275Z,8.88
2022-10-19T19:41:34.254Z,8.76
2022-10-19T19:44:37.340Z,8.66
2022-10-19T19:47:40.095Z,8.50
2022-10-19T19:50:46.823Z,8.45
2022-10-19T19:53:49.625Z,8.41
2022-10-19T19:56:53.779Z,8.37
2022-10-19T19:59:56.614Z,8.41
2022-10-19T20:03:00.494Z,8.30
2022-10-19T20:06:05.361Z,8.33
2022-10-19T20:09:08.999Z,8.22
2022-10-19T20:12:12.001Z,8.31
2022-10-19T20:15:16.572Z,8.36
2022-10-19T20:18:19.670Z,8.37
2022-10-19T20:21:25.725Z,8.32
2022-10-19T20:24:28.723Z,8.30
2022-10-19T20:27:34.967Z,8.21
2022-10-19T20:30:40.239Z,8.16
2022-10-19T20:33:44.373Z,8.05
2022-10-19T20:36:48.259Z,8.07
2022-10-19T20:39:51.932Z,8.02
2022-10-19T20:42:56.443Z,7.93
2022-10-19T20:46:12.903Z,7.85
2022-10-19T20:49:15.773Z,7.79
2022-10-19T20:52:18.490Z,7.70
2022-10-19T20:55:22.130Z,7.53
2022-10-19T20:58:24.618Z,7.51
2022-10-19T21:01:27.984Z,7.54
2022-10-19T21:04:30.695Z,7.59
2022-10-19T21:07:33.614Z,7.56
2022-10-19T21:10:36.830Z,7.53
2022-10-19T21:13:39.623Z,7.50
2022-10-19T21:16:43.011Z,7.48
2022-10-19T21:19:45.781Z,7.42
2022-10-19T21:22:48.272Z,7.36
2022-10-19T21:25:55.001Z,7.37
2022-10-19T21:28:58.010Z,7.30
2022-10-19T21:32:00.754Z,7.25
2022-10-19T21:35:03.609Z,7.22
2022-10-19T21:38:06.371Z,7.22
2022-10-19T21:41:13.033Z,7.23
2022-10-19T21:44:17.059Z,7.15
2022-10-19T21:47:19.507Z,7.16
2022-10-19T21:50:24.103Z,7.26
2022-10-19T21:53:26.753Z,7.26
2022-10-19T21:56:29.600Z,7.21
2022-10-19T21:59:32.043Z,7.21
2022-10-19T22:02:34.805Z,7.16
2022-10-19T22:05:37.542Z,7.14
2022-10-19T22:08:40.946Z,7.09
2022-10-19T22:11:44.188Z,7.03
2022-10-19T22:14:46.615Z,6.95
2022-10-19T22:17:50.082Z,6.84
2022-10-19T22:20:52.954Z,6.71
2022-10-19T22:24:00.960Z,6.58
2022-10-19T22:27:03.513Z,6.51
2022-10-19T22:30:07.770Z,6.45
2022-10-19T22:33:10.666Z,6.38
2022-10-19T22:36:13.569Z,6.26
2022-10-19T22:39:16.507Z,6.30
2022-10-19T22:42:19.198Z,6.17
2022-10-19T22:45:21.691Z,6.10
2022-10-19T22:48:24.494Z,6.16
2022-10-19T22:51:27.030Z,6.05
2022-10-19T22:54:32.143Z,5.94
2022-10-19T22:57:34.657Z,5.96
2022-10-19T23:00:38.836Z,5.69
2022-10-19T23:03:41.641Z,5.68
2022-10-19T23:06:44.436Z,5.59
2022-10-19T23:09:46.960Z,5.62
2022-10-19T23:12:53.554Z,5.68
2022-10-19T23:15:56.229Z,5.67
2022-10-19T23:18:59.013Z,5.74
2022-10-19T23:22:01.588Z,5.55
2022-10-19T23:25:04.934Z,5.56
2022-10-19T23:28:07.441Z,5.67
2022-10-19T23:31:14.251Z,5.81
2022-10-19T23:34:16.802Z,5.88
2022-10-19T23:37:19.607Z,5.89
2022-10-19T23:40:26.683Z,5.86
2022-10-19T23:43:29.851Z,5.75
2022-10-19T23:46:32.378Z,5.68
2022-10-19T23:49:35.124Z,5.76
2022-10-19T23:52:37.613Z,5.76
2022-10-19T23:55:40.391Z,5.71
2022-10-19T23:58:43.588Z,5.72
